createdAt,value
2023-04-27T00:00:50.835Z,12.15
2023-04-27T00:03:23.878Z,12.07
2023-04-27T00:05:56.213Z,9.60
2023-04-27T00:08:30.857Z,13.25
2023-04-27T00:11:02.594Z,15.70
2023-04-27T00:13:34.441Z,13.40
2023-04-27T00:16:07.339Z,11.52
2023-04-27T00:18:39.222Z,12.18
2023-04-27T00:21:11.018Z,13.38
2023-04-27T00:23:45.233Z,16.08
2023-04-27T00:26:17.008Z,12.77
2023-04-27T00:28:52.468Z,12.02
2023-04-27T00:31:24.315Z,14.57
2023-04-27T00:33:59.245Z,11.18
2023-04-27T00:36:34.280Z,14.57
2023-04-27T00:39:06.556Z,12.95
2023-04-27T00:41:42.041Z,16.85
2023-04-27T00:44:13.715Z,13.88
2023-04-27T00:46:45.426Z,14.95
2023-04-27T00:49:19.774Z,17.42
2023-04-27T00:51:51.869Z,17.15
2023-04-27T00:54:24.689Z,16.17
2023-04-27T00:56:56.541Z,15.10
2023-04-27T00:59:32.476Z,17.35
2023-04-27T01:02:04.352Z,15.23
2023-04-27T01:04:38.988Z,19.23
2023-04-27T01:07:13.925Z,15.60
2023-04-27T01:09:48.659Z,17.67
2023-04-27T01:12:23.536Z,15.43
2023-04-27T01:14:55.780Z,15.25
2023-04-27T01:17:29.245Z,19.52
2023-04-27T01:20:02.709Z,14.15
2023-04-27T01:22:34.438Z,16.17
2023-04-27T01:25:08.790Z,16.45
2023-04-27T01:27:40.937Z,14.27
2023-04-27T01:30:12.714Z,18.13
2023-04-27T01:32:44.473Z,15.77
2023-04-27T01:35:16.674Z,16.60
2023-04-27T01:37:48.397Z,16.33
2023-04-27T01:40:22.570Z,13.48
2023-04-27T01:42:54.322Z,14.10
2023-04-27T01:48:47.321Z,15.68
2023-04-27T01:51:23.888Z,15.23
2023-04-27T01:53:56.122Z,14.30
2023-04-27T01:56:31.022Z,14.80
2023-04-27T01:59:02.759Z,13.70
2023-04-27T02:01:35.791Z,16.52
2023-04-27T02:04:09.091Z,14.70
2023-04-27T02:06:41.450Z,14.32
2023-04-27T02:09:14.279Z,13.82
2023-04-27T02:11:46.161Z,12.23
2023-04-27T02:14:18.303Z,12.90
2023-04-27T02:16:54.761Z,13.35
2023-04-27T02:19:27.744Z,13.85
2023-04-27T02:21:59.531Z,11.50
2023-04-27T02:24:35.137Z,12.98
2023-04-27T02:29:39.466Z,11.95
2023-04-27T02:32:11.799Z,16.00
2023-04-27T02:34:47.430Z,14.80
2023-04-27T02:37:19.153Z,12.40
2023-04-27T02:39:52.044Z,12.48
2023-04-27T02:42:23.759Z,10.85
2023-04-27T02:44:56.557Z,11.23
2023-04-27T02:47:33.921Z,14.15
2023-04-27T02:50:10.966Z,14.18
2023-04-27T02:52:44.222Z,13.00
2023-04-27T02:55:16.080Z,14.95
2023-04-27T02:57:47.924Z,12.18
2023-04-27T03:00:22.038Z,11.82
2023-04-27T03:02:53.873Z,15.18
2023-04-27T03:05:29.142Z,14.75
2023-04-27T03:08:00.895Z,13.32
2023-04-27T03:10:32.615Z,15.30
2023-04-27T03:13:04.277Z,21.23
2023-04-27T03:15:35.993Z,14.88
2023-04-27T03:18:07.844Z,17.33
2023-04-27T03:20:39.649Z,16.52
2023-04-27T03:23:12.092Z,14.82
2023-04-27T03:25:43.815Z,12.75
2023-04-27T03:28:15.916Z,13.27
2023-04-27T03:30:47.659Z,14.02
2023-04-27T03:33:27.096Z,15.95
2023-04-27T03:36:05.069Z,17.67
2023-04-27T03:38:37.106Z,15.45
2023-04-27T03:41:09.247Z,13.90
2023-04-27T03:43:40.995Z,13.82
2023-04-27T03:46:12.831Z,14.73
2023-04-27T03:48:48.287Z,13.35
2023-04-27T03:51:20.117Z,13.90
2023-04-27T03:53:51.981Z,14.65
2023-04-27T03:56:23.742Z,16.45
2023-04-27T03:58:59.330Z,13.90
2023-04-27T04:01:43.496Z,14.90
2023-04-27T04:04:15.389Z,14.38
2023-04-27T04:06:49.580Z,14.68
2023-04-27T04:09:24.489Z,12.88
2023-04-27T04:12:03.801Z,12.93
2023-04-27T04:14:35.930Z,13.82
2023-04-27T04:17:13.774Z,14.82
2023-04-27T04:19:49.146Z,13.18
2023-04-27T04:22:21.511Z,14.27
2023-04-27T04:24:53.960Z,14.10
2023-04-27T04:27:28.750Z,16.02
2023-04-27T04:32:38.270Z,14.70
2023-04-27T04:35:12.381Z,14.63
2023-04-27T04:37:44.063Z,18.38
2023-04-27T04:40:15.908Z,16.13
2023-04-27T04:42:47.721Z,14.63
2023-04-27T04:45:20.503Z,17.10
2023-04-27T04:47:55.557Z,13.30
2023-04-27T04:50:31.804Z,15.10
2023-04-27T04:53:03.937Z,15.00
2023-04-27T04:55:39.867Z,14.57
2023-04-27T05:01:12.588Z,16.42
2023-04-27T05:03:45.948Z,13.27
2023-04-27T05:06:18.929Z,17.88
2023-04-27T05:08:55.981Z,12.73
2023-04-27T05:11:30.746Z,16.88
2023-04-27T05:16:34.124Z,20.17
2023-04-27T05:19:06.195Z,16.00
2023-04-27T05:21:37.899Z,12.75
2023-04-27T05:24:09.712Z,14.98
2023-04-27T05:26:43.489Z,18.20
2023-04-27T05:29:15.762Z,12.97
2023-04-27T05:31:47.913Z,15.57
2023-04-27T05:34:20.172Z,15.57
2023-04-27T05:36:53.869Z,14.65
2023-04-27T05:39:26.745Z,24.87
2023-04-27T05:41:58.893Z,50.10
2023-04-27T05:44:31.147Z,40.10
2023-04-27T05:47:03.179Z,23.63
2023-04-27T05:49:35.018Z,25.08
2023-04-27T05:52:06.721Z,24.20
2023-04-27T05:54:38.558Z,18.27
2023-04-27T05:57:13.225Z,17.45
2023-04-27T06:02:18.409Z,21.38
2023-04-27T06:04:50.188Z,15.13
2023-04-27T06:07:21.968Z,18.23
2023-04-27T06:09:55.815Z,17.10
2023-04-27T06:12:28.786Z,12.80
2023-04-27T06:15:00.629Z,16.00
2023-04-27T06:17:36.243Z,17.90
2023-04-27T06:20:14.520Z,17.88
2023-04-27T06:22:49.446Z,12.00
2023-04-27T06:25:24.405Z,17.52
2023-04-27T06:28:02.337Z,22.35
2023-04-27T06:30:38.909Z,13.65
2023-04-27T06:33:11.437Z,18.15
2023-04-27T06:35:47.630Z,14.02
2023-04-27T06:38:19.389Z,13.38
2023-04-27T06:40:54.461Z,14.10
2023-04-27T06:43:27.213Z,13.88
2023-04-27T06:45:59.751Z,14.90
2023-04-27T06:48:31.818Z,50.42
2023-04-27T06:51:03.720Z,15.30
2023-04-27T06:53:36.273Z,14.63
2023-04-27T06:56:14.560Z,13.43
2023-04-27T06:58:46.460Z,11.85
2023-04-27T07:01:18.199Z,9.77
2023-04-27T07:03:50.038Z,11.93
2023-04-27T07:06:26.016Z,13.18
2023-04-27T07:08:57.745Z,8.57
2023-04-27T07:11:30.878Z,5.95
2023-04-27T07:14:02.896Z,9.15
2023-04-27T08:00:16.133Z,9.60
2023-04-27T08:02:48.374Z,9.93
2023-04-27T08:05:21.951Z,6.50
2023-04-27T08:07:56.739Z,6.22
2023-04-27T08:10:34.576Z,11.25
2023-04-27T08:13:09.788Z,7.97
2023-04-27T08:15:41.547Z,8.43
2023-04-27T08:18:13.318Z,8.65
2023-04-27T08:20:45.112Z,7.20
2023-04-27T08:23:18.585Z,6.70
2023-04-27T08:25:51.625Z,10.63
2023-04-27T08:28:23.541Z,6.88
2023-04-27T08:30:55.378Z,9.95
2023-04-27T08:33:29.223Z,12.20
2023-04-27T08:36:05.173Z,10.23
2023-04-27T08:38:39.733Z,9.77
2023-04-27T08:43:54.213Z,7.32
2023-04-27T08:46:37.815Z,7.65
2023-04-27T08:49:10.049Z,7.72
2023-04-27T08:51:42.790Z,10.05
2023-04-27T08:54:14.464Z,7.47
2023-04-27T08:56:46.595Z,9.63
2023-04-27T08:59:21.559Z,6.18
2023-04-27T09:01:54.906Z,9.30
2023-04-27T09:04:37.908Z,7.57
2023-04-27T09:07:18.171Z,8.45
2023-04-27T09:09:50.324Z,6.85
2023-04-27T09:12:28.495Z,7.10
2023-04-27T09:15:06.245Z,9.15
2023-04-27T09:17:41.338Z,6.82
2023-04-27T09:20:13.651Z,9.65
2023-04-27T09:22:51.688Z,8.50
2023-04-27T09:25:33.955Z,6.45
2023-04-27T09:28:14.417Z,33.63
2023-04-27T09:31:09.678Z,6.78
2023-04-27T09:33:41.744Z,9.05
2023-04-27T09:36:14.937Z,5.88
2023-04-27T09:38:47.284Z,5.75
2023-04-27T09:41:19.467Z,8.57
2023-04-27T09:43:57.068Z,10.13
2023-04-27T09:46:29.958Z,5.35
2023-04-27T09:49:04.938Z,7.75
2023-04-27T09:51:36.660Z,9.60
2023-04-27T09:54:11.821Z,9.65
2023-04-27T09:57:16.007Z,4.93
2023-04-27T10:00:11.087Z,5.90
2023-04-27T10:03:15.085Z,6.38
2023-04-27T10:06:28.790Z,9.23
2023-04-27T10:09:07.066Z,7.85
2023-04-27T10:12:00.593Z,11.05
2023-04-27T10:14:33.726Z,8.38
2023-04-27T10:17:11.086Z,9.23
2023-04-27T10:19:57.340Z,10.48
2023-04-27T10:22:56.973Z,8.50
2023-04-27T10:25:30.672Z,10.20
2023-04-27T10:28:03.143Z,7.77
2023-04-27T10:30:38.174Z,8.48
2023-04-27T10:33:14.147Z,7.30
2023-04-27T10:36:00.287Z,7.97
2023-04-27T10:38:33.116Z,8.30
2023-04-27T10:41:07.529Z,6.47
2023-04-27T10:44:32.621Z,6.60
2023-04-27T10:47:19.945Z,8.07
2023-04-27T10:50:00.322Z,8.68
2023-04-27T10:52:34.901Z,4.78
2023-04-27T10:57:47.748Z,6.50
2023-04-27T11:00:25.402Z,6.28
2023-04-27T11:03:11.581Z,11.45
2023-04-27T11:05:45.286Z,7.45
2023-04-27T11:08:18.913Z,5.55
2023-04-27T11:10:52.085Z,8.83
2023-04-27T11:13:25.464Z,6.53
2023-04-27T11:15:59.439Z,6.13
2023-04-27T11:18:35.412Z,7.03
2023-04-27T11:21:15.236Z,7.03
2023-04-27T11:23:49.351Z,6.07
2023-04-27T11:26:22.553Z,6.80
2023-04-27T11:29:05.680Z,8.32
2023-04-27T11:31:49.710Z,7.10
2023-04-27T11:34:34.321Z,9.25
2023-04-27T11:37:18.062Z,6.55
2023-04-27T11:39:54.102Z,9.13
2023-04-27T11:42:31.605Z,9.30
2023-04-27T11:45:08.308Z,8.07
2023-04-27T11:47:46.623Z,7.72
2023-04-27T11:50:19.234Z,6.05
2023-04-27T11:52:54.831Z,8.48
2023-04-27T11:55:26.798Z,7.88
2023-04-27T11:57:59.302Z,5.63
2023-04-27T12:00:31.225Z,5.22
2023-04-27T12:03:03.991Z,4.97
2023-04-27T12:05:36.010Z,5.82
2023-04-27T12:08:07.763Z,7.55
2023-04-27T12:10:40.193Z,7.85
2023-04-27T12:13:12.581Z,16.67
2023-04-27T12:15:44.572Z,6.82
2023-04-27T12:18:16.417Z,9.32
2023-04-27T12:20:48.234Z,7.72
2023-04-27T12:23:21.387Z,6.05
2023-04-27T12:25:53.544Z,9.20
2023-04-27T12:28:25.227Z,7.18
2023-04-27T12:31:04.005Z,9.20
2023-04-27T12:33:37.062Z,6.30
2023-04-27T12:36:08.828Z,7.43
2023-04-27T12:38:41.645Z,9.27
2023-04-27T12:41:13.428Z,7.95
2023-04-27T12:43:45.970Z,8.30
2023-04-27T12:46:20.680Z,8.45
2023-04-27T12:48:52.538Z,8.10
2023-04-27T12:51:24.368Z,7.43
2023-04-27T12:54:00.903Z,7.57
2023-04-27T12:56:34.323Z,9.05
2023-04-27T12:59:07.518Z,5.93
2023-04-27T13:01:42.215Z,10.05
2023-04-27T13:04:20.656Z,7.18
2023-04-27T13:06:53.116Z,8.43
2023-04-27T13:09:24.882Z,7.00
2023-04-27T13:11:58.714Z,10.13
2023-04-27T13:14:34.814Z,8.40
2023-04-27T13:17:09.712Z,5.72
2023-04-27T13:19:41.419Z,7.30
2023-04-27T13:22:13.380Z,8.38
2023-04-27T13:24:45.048Z,7.40
2023-04-27T13:27:17.303Z,13.70
2023-04-27T13:29:51.929Z,7.00
2023-04-27T13:34:55.446Z,7.60
2023-04-27T13:37:27.949Z,5.68
2023-04-27T13:39:59.710Z,6.05
2023-04-27T13:42:31.458Z,9.35
2023-04-27T13:45:04.673Z,8.00
2023-04-27T13:47:42.381Z,6.30
2023-04-27T13:50:14.359Z,7.25
2023-04-27T13:52:46.356Z,7.82
2023-04-27T13:55:18.339Z,5.63
2023-04-27T13:57:50.067Z,6.28
2023-04-27T14:00:21.873Z,8.65
2023-04-27T14:02:56.236Z,6.85
2023-04-27T14:05:28.134Z,7.93
2023-04-27T14:08:03.288Z,6.70
2023-04-27T14:10:37.060Z,6.78
2023-04-27T14:13:09.157Z,8.13
2023-04-27T14:15:41.548Z,10.18
2023-04-27T14:18:13.453Z,8.32
2023-04-27T14:20:45.430Z,8.80
2023-04-27T14:23:17.205Z,6.03
2023-04-27T14:25:48.901Z,10.52
2023-04-27T14:28:20.698Z,11.45
2023-04-27T14:30:52.448Z,7.55
2023-04-27T14:33:24.223Z,9.68
2023-04-27T14:35:56.556Z,10.07
2023-04-27T14:38:31.827Z,12.20
2023-04-27T14:41:03.575Z,8.23
2023-04-27T14:43:38.564Z,9.05
2023-04-27T14:46:20.218Z,7.05
2023-04-27T14:48:53.048Z,9.85
2023-04-27T14:51:24.766Z,6.82
2023-04-27T14:53:56.738Z,8.20
2023-04-27T14:56:28.446Z,8.13
2023-04-27T14:59:02.005Z,6.25
2023-04-27T15:01:33.779Z,7.22
2023-04-27T15:04:05.778Z,5.88
2023-04-27T15:06:37.910Z,6.25
2023-04-27T15:09:09.781Z,7.90
2023-04-27T15:11:44.911Z,5.07
2023-04-27T15:14:17.685Z,6.13
2023-04-27T15:16:49.828Z,8.43
2023-04-27T15:19:21.621Z,8.65
2023-04-27T15:21:53.355Z,7.97
2023-04-27T15:24:29.156Z,6.10
2023-04-27T15:27:01.596Z,5.82
2023-04-27T15:29:33.585Z,6.22
2023-04-27T15:32:05.452Z,8.50
2023-04-27T15:34:37.340Z,7.25
2023-04-27T15:37:10.624Z,7.13
2023-04-27T15:39:43.209Z,4.50
2023-04-27T15:44:48.498Z,11.50
2023-04-27T15:47:20.244Z,11.32
2023-04-27T15:49:57.464Z,7.10
2023-04-27T15:52:29.792Z,7.70
2023-04-27T15:55:01.797Z,7.05
2023-04-27T15:57:34.940Z,5.32
2023-04-27T16:00:10.341Z,9.00
2023-04-27T16:02:44.856Z,9.07
2023-04-27T16:05:20.697Z,6.75
2023-04-27T16:10:24.210Z,10.18
2023-04-27T16:12:58.899Z,7.10
2023-04-27T16:15:30.644Z,7.05
2023-04-27T16:18:02.605Z,11.18
2023-04-27T16:20:36.517Z,8.30
2023-04-27T16:23:08.739Z,6.68
2023-04-27T16:25:41.542Z,10.93
2023-04-27T16:28:13.314Z,7.72
2023-04-27T16:30:45.239Z,10.95
2023-04-27T16:33:19.318Z,13.32
2023-04-27T16:35:51.883Z,15.02
2023-04-27T16:38:23.896Z,12.38
2023-04-27T16:40:56.378Z,14.35
2023-04-27T16:43:29.920Z,9.45
2023-04-27T16:46:01.737Z,10.82
2023-04-27T16:48:33.609Z,18.13
2023-04-27T16:51:09.397Z,13.57
2023-04-27T16:53:41.382Z,16.48
2023-04-27T16:56:14.237Z,15.57
2023-04-27T16:58:48.414Z,14.25
2023-04-27T17:01:20.244Z,12.23
2023-04-27T17:03:52.180Z,12.80
2023-04-27T17:06:28.406Z,13.60
2023-04-27T17:09:00.199Z,15.48
2023-04-27T17:11:32.443Z,11.07
2023-04-27T17:14:04.205Z,15.93
2023-04-27T17:16:36.006Z,13.88
2023-04-27T17:19:07.764Z,18.38
2023-04-27T17:21:39.513Z,13.85
2023-04-27T17:24:11.424Z,17.63
2023-04-27T17:26:43.258Z,11.77
2023-04-27T17:29:17.939Z,14.73
2023-04-27T17:34:23.403Z,15.38
2023-04-27T17:36:55.273Z,12.93
2023-04-27T17:39:27.102Z,9.75
2023-04-27T17:41:59.239Z,12.85
2023-04-27T17:44:32.674Z,11.40
2023-04-27T17:47:06.439Z,13.85
2023-04-27T17:49:39.715Z,12.27
2023-04-27T17:52:11.516Z,11.40
2023-04-27T17:54:43.358Z,10.60
2023-04-27T17:57:15.194Z,15.80
2023-04-27T17:59:49.988Z,11.38
2023-04-27T18:02:22.250Z,17.20
2023-04-27T18:04:53.993Z,14.13
2023-04-27T18:07:25.804Z,14.85
2023-04-27T18:10:02.379Z,24.65
2023-04-27T18:12:34.872Z,14.77
2023-04-27T18:15:09.365Z,16.80
2023-04-27T18:17:41.905Z,17.30
2023-04-27T18:20:15.310Z,13.85
2023-04-27T18:22:48.574Z,19.73
2023-04-27T18:25:20.417Z,22.20
2023-04-27T18:27:55.506Z,15.75
2023-04-27T18:30:27.348Z,14.27
2023-04-27T18:32:59.394Z,17.80
2023-04-27T18:35:31.404Z,13.77
2023-04-27T18:38:03.661Z,16.23
2023-04-27T18:40:41.457Z,15.13
2023-04-27T18:43:13.290Z,19.88
2023-04-27T18:45:45.251Z,19.27
2023-04-27T18:48:17.637Z,18.85
2023-04-27T18:50:49.508Z,13.52
2023-04-27T18:53:21.604Z,17.58
2023-04-27T18:55:53.293Z,17.15
2023-04-27T18:58:25.048Z,16.10
2023-04-27T19:00:59.073Z,17.10
2023-04-27T19:03:31.082Z,14.32
2023-04-27T19:06:03.105Z,14.43
2023-04-27T19:08:37.825Z,16.58
2023-04-27T19:13:43.276Z,24.42
2023-04-27T19:16:15.495Z,22.10
2023-04-27T19:18:50.444Z,22.90
2023-04-27T19:21:22.549Z,19.65
2023-04-27T19:23:54.668Z,17.75
2023-04-27T19:26:29.089Z,21.63
2023-04-27T19:29:05.637Z,24.75
2023-04-27T19:31:37.492Z,16.00
2023-04-27T19:34:09.352Z,19.98
2023-04-27T19:36:41.065Z,19.05
2023-04-27T19:39:14.047Z,22.88
2023-04-27T19:41:46.132Z,17.55
2023-04-27T19:44:19.431Z,23.35
2023-04-27T19:46:52.220Z,21.40
2023-04-27T19:49:24.076Z,19.23
2023-04-27T19:51:55.935Z,16.75
2023-04-27T19:54:31.120Z,18.85
2023-04-27T19:57:03.950Z,18.67
2023-04-27T19:59:36.219Z,23.05
2023-04-27T20:02:08.151Z,19.85
2023-04-27T20:04:41.447Z,22.60
2023-04-27T20:07:13.394Z,25.13
2023-04-27T20:09:47.138Z,21.80
2023-04-27T20:12:40.447Z,23.40
2023-04-27T20:15:10.659Z,18.02
2023-04-27T20:17:42.464Z,20.48
2023-04-27T20:20:14.840Z,21.17
2023-04-27T20:22:46.967Z,23.67
2023-04-27T20:25:19.627Z,18.73
2023-04-27T20:27:51.865Z,19.50
2023-04-27T20:30:23.661Z,18.75
2023-04-27T20:32:56.465Z,21.33
2023-04-27T20:35:33.636Z,15.90
2023-04-27T20:38:10.925Z,19.20
2023-04-27T20:40:42.706Z,20.35
2023-04-27T20:43:15.753Z,19.65
2023-04-27T20:45:47.549Z,19.95
2023-04-27T20:48:19.379Z,21.10
2023-04-27T20:50:51.839Z,18.70
2023-04-27T20:53:23.748Z,18.98
2023-04-27T20:55:56.952Z,25.52
2023-04-27T20:58:28.693Z,20.48
2023-04-27T21:01:03.470Z,27.02
2023-04-27T21:03:35.772Z,19.05
2023-04-27T21:06:07.618Z,21.30
2023-04-27T21:08:40.409Z,20.05
2023-04-27T21:11:18.054Z,26.80
2023-04-27T21:13:50.041Z,27.73
2023-04-27T21:16:24.607Z,25.98
2023-04-27T21:18:56.809Z,27.05
2023-04-27T21:21:28.650Z,27.15
2023-04-27T21:24:07.417Z,25.92
2023-04-27T21:26:40.060Z,25.85
2023-04-27T21:29:14.442Z,32.53
2023-04-27T21:31:46.256Z,24.77
2023-04-27T21:34:18.111Z,25.52
2023-04-27T21:36:53.001Z,25.67
2023-04-27T21:41:56.377Z,23.13
2023-04-27T21:44:28.153Z,19.77
2023-04-27T21:47:01.257Z,19.27
2023-04-27T21:49:32.968Z,22.73
2023-04-27T21:52:05.000Z,24.08
2023-04-27T21:54:37.425Z,22.35
2023-04-27T21:57:09.181Z,25.25
2023-04-27T21:59:41.060Z,22.20
2023-04-27T22:02:13.652Z,24.40
2023-04-27T22:04:46.824Z,21.13
2023-04-27T22:07:21.637Z,23.65
2023-04-27T22:09:55.396Z,23.73
2023-04-27T22:12:27.209Z,21.17
2023-04-27T22:14:58.932Z,19.67
2023-04-27T22:17:30.684Z,26.13
2023-04-27T22:20:05.009Z,24.27
2023-04-27T22:22:37.816Z,25.17
2023-04-27T22:25:14.060Z,30.80
2023-04-27T22:27:45.806Z,24.17
2023-04-27T22:30:17.640Z,28.77
2023-04-27T22:32:50.298Z,23.90
2023-04-27T22:35:27.475Z,22.85
2023-04-27T22:38:00.186Z,22.70
2023-04-27T22:40:31.925Z,19.55
2023-04-27T22:43:03.884Z,20.58
2023-04-27T22:45:38.095Z,21.75
2023-04-27T22:48:11.119Z,19.95
2023-04-27T22:50:43.197Z,28.33
2023-04-27T22:53:14.967Z,21.13
2023-04-27T22:55:46.724Z,24.38
2023-04-27T22:58:18.493Z,26.15
2023-04-27T23:00:53.239Z,25.75
2023-04-27T23:05:59.429Z,25.42
2023-04-27T23:08:31.472Z,20.90
2023-04-27T23:11:03.752Z,22.90
2023-04-27T23:13:35.515Z,21.73
2023-04-27T23:16:07.841Z,19.45
2023-04-27T23:18:39.679Z,23.48
2023-04-27T23:21:11.857Z,21.15
2023-04-27T23:23:43.710Z,18.42
2023-04-27T23:26:16.615Z,21.23
2023-04-27T23:28:49.725Z,21.05
2023-04-27T23:31:23.128Z,20.70
2023-04-27T23:33:54.942Z,21.00
2023-04-27T23:36:26.751Z,20.15
2023-04-27T23:38:58.468Z,23.23
2023-04-27T23:41:30.209Z,22.58
2023-04-27T23:44:08.546Z,19.77
2023-04-27T23:46:40.289Z,19.45
2023-04-27T23:49:12.153Z,16.92
2023-04-27T23:51:43.885Z,20.83
2023-04-27T23:54:16.224Z,19.10
2023-04-27T23:56:50.558Z,22.48
2023-04-27T23:59:22.302Z,18.48
